Time;durP1;ratioP1;P1;durP2;ratioP2;P2;SDS_P1;SDS_P2;PMS_P1;PMS_P2;Temp;Humidity;BMP_temperature;BMP_pressure;BME280_temperature;BME280_humidity;BME280_pressure;Samples;Min_cycle;Max_cycle;Signal;HPM_P1;HPM_P2
2024/01/19 00:01:40;;;;;;;16.83;11.97;;;;;;;;;;6101423;23;20673;-88
2024/01/19 00:04:06;;;;;;;17.30;9.77;;;;;;;;;;6098452;23;20377;-86
2024/01/19 00:06:32;;;;;;;13.47;8.73;;;;;;;;;;6101987;23;20396;-89
2024/01/19 00:08:58;;;;;;;13.90;9.67;;;;;;;;;;6097355;23;20411;-89
2024/01/19 00:11:24;;;;;;;19.00;8.37;;;;;;;;;;6116164;23;20398;-88
2024/01/19 00:13:50;;;;;;;18.63;10.80;;;;;;;;;;6128738;23;20378;-89
2024/01/19 00:16:18;;;;;;;13.83;10.33;;;;;;;;;;6134579;23;20406;-88
2024/01/19 00:18:44;;;;;;;11.93;8.20;;;;;;;;;;6178719;23;20680;-89
2024/01/19 00:21:10;;;;;;;15.80;10.13;;;;;;;;;;6189072;23;20387;-89
2024/01/19 00:23:36;;;;;;;16.40;8.30;;;;;;;;;;6166422;23;20423;-90
2024/01/19 00:26:02;;;;;;;16.50;9.03;;;;;;;;;;6188645;23;20399;-89
2024/01/19 00:28:31;;;;;;;12.57;9.00;;;;;;;;;;6191759;23;20404;-89
2024/01/19 00:30:58;;;;;;;18.40;10.47;;;;;;;;;;6191228;23;20392;-89
2024/01/19 00:33:24;;;;;;;16.53;9.93;;;;;;;;;;6170115;23;21214;-88
2024/01/19 00:35:52;;;;;;;46.47;10.60;;;;;;;;;;6194014;23;20742;-88
2024/01/19 00:38:18;;;;;;;20.43;8.93;;;;;;;;;;6193496;23;21025;-88
2024/01/19 00:40:45;;;;;;;12.67;7.97;;;;;;;;;;6166017;23;20396;-88
2024/01/19 00:43:11;;;;;;;20.10;8.50;;;;;;;;;;6165744;23;20417;-88
2024/01/19 00:45:38;;;;;;;18.33;8.83;;;;;;;;;;6164282;23;20848;-87
2024/01/19 00:48:05;;;;;;;16.93;10.07;;;;;;;;;;6169162;23;20431;-88
2024/01/19 00:50:32;;;;;;;19.60;9.47;;;;;;;;;;6190592;23;20368;-88
2024/01/19 00:52:58;;;;;;;15.07;8.80;;;;;;;;;;6167205;23;20399;-89
2024/01/19 00:55:24;;;;;;;17.73;9.60;;;;;;;;;;6166254;23;20391;-89
2024/01/19 00:57:50;;;;;;;22.67;8.87;;;;;;;;;;6167887;23;20394;-88
2024/01/19 01:00:16;;;;;;;13.03;8.80;;;;;;;;;;6166943;23;20430;-88
2024/01/19 01:02:42;;;;;;;13.20;8.17;;;;;;;;;;6165008;23;20469;-88
2024/01/19 01:05:08;;;;;;;14.10;9.90;;;;;;;;;;6166404;23;20770;-88
2024/01/19 01:07:35;;;;;;;15.50;9.23;;;;;;;;;;6167839;23;20395;-88
2024/01/19 01:10:02;;;;;;;15.70;9.00;;;;;;;;;;6168306;23;20383;-88
2024/01/19 01:12:28;;;;;;;11.83;8.57;;;;;;;;;;6167767;23;20384;-89
2024/01/19 01:14:54;;;;;;;11.17;8.07;;;;;;;;;;6192589;23;20485;-88
2024/01/19 01:17:20;;;;;;;14.00;8.80;;;;;;;;;;6166021;23;20470;-89
2024/01/19 01:19:46;;;;;;;14.23;8.97;;;;;;;;;;6169180;23;20459;-88
2024/01/19 01:22:13;;;;;;;19.57;11.40;;;;;;;;;;6166289;23;20454;-88
2024/01/19 01:24:39;;;;;;;11.20;8.50;;;;;;;;;;6165351;23;20380;-87
2024/01/19 01:27:05;;;;;;;15.10;9.40;;;;;;;;;;6164749;23;20736;-88
2024/01/19 01:29:31;;;;;;;13.70;8.90;;;;;;;;;;6164396;23;20387;-89
2024/01/19 01:31:57;;;;;;;20.77;9.60;;;;;;;;;;6164326;23;20376;-88
2024/01/19 01:34:23;;;;;;;14.07;7.97;;;;;;;;;;6166468;23;20430;-89
2024/01/19 01:36:49;;;;;;;13.80;8.30;;;;;;;;;;6165206;23;20473;-88
2024/01/19 01:39:15;;;;;;;12.40;8.17;;;;;;;;;;6167073;23;20967;-88
2024/01/19 01:41:42;;;;;;;10.93;7.87;;;;;;;;;;6162369;23;20383;-88
2024/01/19 01:44:08;;;;;;;12.40;8.70;;;;;;;;;;6166539;23;20383;-88
2024/01/19 01:46:34;;;;;;;15.93;8.30;;;;;;;;;;6181881;23;20380;-88
2024/01/19 01:49:00;;;;;;;15.80;9.10;;;;;;;;;;6213557;23;20488;-88
2024/01/19 01:51:26;;;;;;;10.03;7.37;;;;;;;;;;6187275;23;20860;-89
2024/01/19 01:53:52;;;;;;;12.17;8.77;;;;;;;;;;6218097;23;20443;-89
2024/01/19 01:56:19;;;;;;;12.63;9.53;;;;;;;;;;6191770;23;20391;-89
2024/01/19 01:58:45;;;;;;;14.70;9.67;;;;;;;;;;6188310;23;20388;-89
2024/01/19 02:01:11;;;;;;;18.30;10.57;;;;;;;;;;6214709;23;20360;-88
2024/01/19 02:03:37;;;;;;;17.17;8.53;;;;;;;;;;6166340;23;20495;-89
2024/01/19 02:06:04;;;;;;;14.73;9.17;;;;;;;;;;6191504;23;20391;-89
2024/01/19 02:08:30;;;;;;;14.10;9.40;;;;;;;;;;6191842;23;20381;-88
2024/01/19 02:10:56;;;;;;;13.33;7.80;;;;;;;;;;6189754;23;20391;-88
2024/01/19 02:13:22;;;;;;;16.53;10.13;;;;;;;;;;6192108;23;20384;-89
2024/01/19 02:15:48;;;;;;;21.47;9.30;;;;;;;;;;6165631;23;20418;-88
2024/01/19 02:18:14;;;;;;;16.43;9.13;;;;;;;;;;6190298;23;20391;-90
2024/01/19 02:20:41;;;;;;;16.23;11.47;;;;;;;;;;6214943;23;20435;-90
2024/01/19 02:23:08;;;;;;;14.63;8.80;;;;;;;;;;6165294;23;20416;-89
2024/01/19 02:25:34;;;;;;;16.13;8.83;;;;;;;;;;6190442;23;20888;-88
2024/01/19 02:28:00;;;;;;;20.73;9.30;;;;;;;;;;6187229;23;20495;-88
2024/01/19 02:30:26;;;;;;;13.00;8.83;;;;;;;;;;6189460;23;20759;-89
2024/01/19 02:32:52;;;;;;;12.90;9.13;;;;;;;;;;6189675;23;20384;-88
2024/01/19 02:35:18;;;;;;;15.33;10.03;;;;;;;;;;6218145;23;20430;-89
2024/01/19 02:37:44;;;;;;;10.07;8.77;;;;;;;;;;6165177;23;20384;-89
2024/01/19 02:40:11;;;;;;;10.90;8.37;;;;;;;;;;6216997;23;20380;-89
2024/01/19 02:42:37;;;;;;;12.90;8.20;;;;;;;;;;6191399;23;20474;-88
2024/01/19 02:45:03;;;;;;;17.50;10.27;;;;;;;;;;6191279;23;20383;-88
2024/01/19 02:47:29;;;;;;;17.43;9.13;;;;;;;;;;6165328;23;20797;-88
2024/01/19 02:49:55;;;;;;;14.27;10.33;;;;;;;;;;6190637;23;20391;-88
2024/01/19 02:52:21;;;;;;;17.53;8.57;;;;;;;;;;6166502;23;20388;-88
2024/01/19 02:54:48;;;;;;;16.50;8.80;;;;;;;;;;6189850;23;20711;-90
2024/01/19 02:57:14;;;;;;;11.00;7.60;;;;;;;;;;6190345;23;20891;-89
2024/01/19 02:59:40;;;;;;;14.60;9.57;;;;;;;;;;6193182;23;20475;-88
2024/01/19 03:02:06;;;;;;;10.73;8.90;;;;;;;;;;6191128;23;20799;-89
2024/01/19 03:04:32;;;;;;;13.30;8.00;;;;;;;;;;6191785;23;20411;-89
2024/01/19 03:06:59;;;;;;;12.50;9.10;;;;;;;;;;6216071;23;20348;-88
2024/01/19 03:09:25;;;;;;;11.40;8.10;;;;;;;;;;6192845;23;20391;-89
2024/01/19 03:11:51;;;;;;;12.73;8.70;;;;;;;;;;6190629;23;20376;-89
2024/01/19 03:14:17;;;;;;;17.10;10.57;;;;;;;;;;6190333;23;20380;-88
2024/01/19 03:16:43;;;;;;;12.77;7.90;;;;;;;;;;6164646;23;20742;-88
2024/01/19 03:19:09;;;;;;;17.93;8.57;;;;;;;;;;6193856;23;20383;-87
2024/01/19 03:21:35;;;;;;;11.03;6.50;;;;;;;;;;6188016;23;20384;-88
2024/01/19 03:24:01;;;;;;;15.27;10.27;;;;;;;;;;6191747;23;20403;-87
2024/01/19 03:26:28;;;;;;;11.87;8.70;;;;;;;;;;6202191;23;20364;-87
2024/01/19 03:28:54;;;;;;;9.73;6.90;;;;;;;;;;6204253;23;20392;-87
2024/01/19 03:31:20;;;;;;;13.63;7.50;;;;;;;;;;6201279;23;20384;-87
2024/01/19 03:33:46;;;;;;;16.73;8.37;;;;;;;;;;6204150;23;20407;-89
2024/01/19 03:36:12;;;;;;;8.20;7.33;;;;;;;;;;6228453;23;20419;-89
2024/01/19 03:38:38;;;;;;;16.67;8.83;;;;;;;;;;6195674;23;20384;-88
2024/01/19 03:41:04;;;;;;;13.43;10.10;;;;;;;;;;6216424;23;20424;-88
2024/01/19 03:43:30;;;;;;;11.33;9.07;;;;;;;;;;6165724;23;20416;-88
2024/01/19 03:45:56;;;;;;;17.97;10.37;;;;;;;;;;6191819;23;20380;-88
2024/01/19 03:48:22;;;;;;;14.57;10.03;;;;;;;;;;6190391;23;20448;-89
2024/01/19 03:50:48;;;;;;;12.17;7.07;;;;;;;;;;6191385;23;20348;-88
2024/01/19 03:53:14;;;;;;;14.17;10.00;;;;;;;;;;6191228;23;20376;-89
2024/01/19 03:55:40;;;;;;;12.27;7.60;;;;;;;;;;6168099;23;20430;-89
2024/01/19 03:58:06;;;;;;;11.07;9.13;;;;;;;;;;6190826;23;20392;-88
2024/01/19 04:00:33;;;;;;;17.90;9.13;;;;;;;;;;6218803;23;20376;-88
2024/01/19 04:02:59;;;;;;;13.97;8.17;;;;;;;;;;6189094;23;20416;-87
2024/01/19 04:05:25;;;;;;;13.63;8.73;;;;;;;;;;6190653;23;20388;-88
2024/01/19 04:07:51;;;;;;;11.50;8.80;;;;;;;;;;6189042;23;20871;-89
2024/01/19 04:10:17;;;;;;;13.57;9.77;;;;;;;;;;6215914;23;20365;-88
2024/01/19 04:12:43;;;;;;;12.27;8.30;;;;;;;;;;6189862;23;20376;-89
2024/01/19 04:15:09;;;;;;;11.70;7.70;;;;;;;;;;6192511;23;20383;-88
2024/01/19 04:17:35;;;;;;;16.33;10.73;;;;;;;;;;6190444;23;20388;-88
2024/01/19 04:20:01;;;;;;;16.10;11.00;;;;;;;;;;6169440;23;20788;-89
2024/01/19 04:22:27;;;;;;;12.60;9.37;;;;;;;;;;6166681;23;20435;-89
2024/01/19 04:24:53;;;;;;;15.40;9.17;;;;;;;;;;6192700;23;20399;-89
2024/01/19 04:27:19;;;;;;;15.97;8.57;;;;;;;;;;6189538;23;20412;-89
2024/01/19 04:29:45;;;;;;;17.30;9.90;;;;;;;;;;6218164;23;20412;-88
2024/01/19 04:32:11;;;;;;;14.13;9.83;;;;;;;;;;6192587;23;20372;-89
2024/01/19 04:34:38;;;;;;;12.93;8.40;;;;;;;;;;6189543;23;20379;-88
2024/01/19 04:37:04;;;;;;;18.60;10.63;;;;;;;;;;6193888;23;20360;-90
2024/01/19 04:39:30;;;;;;;13.07;7.97;;;;;;;;;;6194451;23;20391;-88
2024/01/19 04:41:56;;;;;;;14.47;8.70;;;;;;;;;;6192433;23;20779;-87
2024/01/19 04:44:22;;;;;;;14.30;10.10;;;;;;;;;;6188649;23;20456;-87
2024/01/19 04:46:48;;;;;;;12.40;9.80;;;;;;;;;;6166147;23;20391;-88
2024/01/19 04:49:14;;;;;;;15.57;10.00;;;;;;;;;;6190345;23;20376;-88
2024/01/19 04:51:40;;;;;;;25.63;10.90;;;;;;;;;;6169473;23;20399;-88
2024/01/19 04:54:06;;;;;;;14.70;9.27;;;;;;;;;;6164038;23;20384;-88
2024/01/19 04:56:33;;;;;;;20.27;8.63;;;;;;;;;;6192612;23;20407;-88
2024/01/19 04:59:00;;;;;;;8.97;6.40;;;;;;;;;;6190144;23;20473;-88
2024/01/19 05:01:27;;;;;;;13.57;9.17;;;;;;;;;;6194834;23;20388;-89
2024/01/19 05:03:53;;;;;;;18.40;10.20;;;;;;;;;;6191246;23;20764;-88
2024/01/19 05:06:19;;;;;;;15.63;10.33;;;;;;;;;;6191294;23;20364;-92
2024/01/19 05:08:46;;;;;;;13.53;9.67;;;;;;;;;;6168099;23;20879;-88
2024/01/19 05:11:13;;;;;;;21.63;9.77;;;;;;;;;;6217016;23;20380;-88
2024/01/19 05:13:41;;;;;;;14.17;7.83;;;;;;;;;;6218705;23;20388;-89
2024/01/19 05:16:10;;;;;;;14.17;7.97;;;;;;;;;;6191546;23;20376;-89
2024/01/19 05:18:36;;;;;;;15.87;9.20;;;;;;;;;;6218629;23;20367;-87
2024/01/19 05:21:03;;;;;;;13.53;8.40;;;;;;;;;;6217029;23;20364;-89
2024/01/19 05:23:29;;;;;;;13.80;9.00;;;;;;;;;;6191583;23;20419;-89
2024/01/19 05:25:55;;;;;;;12.03;9.67;;;;;;;;;;6190181;23;20384;-88
2024/01/19 05:28:21;;;;;;;12.80;7.70;;;;;;;;;;6189764;23;20388;-88
2024/01/19 05:30:48;;;;;;;22.57;10.87;;;;;;;;;;6189938;23;20368;-89
2024/01/19 05:33:14;;;;;;;18.00;8.80;;;;;;;;;;6169434;23;20388;-88
2024/01/19 05:35:40;;;;;;;17.33;9.30;;;;;;;;;;6191938;23;20394;-89
2024/01/19 05:38:06;;;;;;;13.10;6.97;;;;;;;;;;6193526;23;20395;-89
2024/01/19 05:40:32;;;;;;;15.53;7.90;;;;;;;;;;6192371;23;20387;-89
2024/01/19 05:42:58;;;;;;;11.37;10.20;;;;;;;;;;6193686;23;20427;-89
2024/01/19 05:45:24;;;;;;;15.10;8.57;;;;;;;;;;6168883;23;20383;-88
2024/01/19 05:47:50;;;;;;;13.97;8.33;;;;;;;;;;6193711;23;20380;-88
2024/01/19 05:50:16;;;;;;;14.67;7.77;;;;;;;;;;6191513;23;20412;-88
2024/01/19 05:52:42;;;;;;;8.43;6.23;;;;;;;;;;6194508;23;20391;-88
2024/01/19 05:55:08;;;;;;;10.57;7.47;;;;;;;;;;6190403;23;20860;-88
2024/01/19 05:57:34;;;;;;;15.97;9.03;;;;;;;;;;6192755;23;21295;-88
2024/01/19 06:00:00;;;;;;;13.70;8.63;;;;;;;;;;6191836;23;20402;-88
2024/01/19 06:02:27;;;;;;;17.77;8.50;;;;;;;;;;6217538;23;20926;-88
2024/01/19 06:04:52;;;;;;;16.43;7.60;;;;;;;;;;6164747;23;20380;-87
2024/01/19 06:07:18;;;;;;;14.77;10.07;;;;;;;;;;6163031;23;20380;-88
2024/01/19 06:09:44;;;;;;;11.57;8.90;;;;;;;;;;6166956;23;20378;-87
2024/01/19 06:12:10;;;;;;;12.57;6.50;;;;;;;;;;6190507;23;20382;-88
2024/01/19 06:14:36;;;;;;;16.70;9.90;;;;;;;;;;6166538;23;20410;-87
2024/01/19 06:17:03;;;;;;;12.47;8.23;;;;;;;;;;6166537;23;20444;-87
2024/01/19 06:19:29;;;;;;;13.60;7.70;;;;;;;;;;6163603;23;20393;-88
2024/01/19 06:21:55;;;;;;;14.80;8.37;;;;;;;;;;6164241;23;20419;-88
2024/01/19 06:24:21;;;;;;;11.67;8.07;;;;;;;;;;6167172;23;20757;-88
2024/01/19 06:26:48;;;;;;;9.50;6.43;;;;;;;;;;6164534;23;20368;-88
2024/01/19 06:29:14;;;;;;;11.53;7.30;;;;;;;;;;6164504;23;20454;-88
2024/01/19 06:31:46;;;;;;;17.67;8.90;;;;;;;;;;6165209;23;20375;-88
2024/01/19 06:34:12;;;;;;;14.37;9.37;;;;;;;;;;6168077;23;20377;-87
2024/01/19 06:36:38;;;;;;;9.63;8.40;;;;;;;;;;6167199;23;20361;-86
2024/01/19 06:39:04;;;;;;;11.77;8.00;;;;;;;;;;6214799;23;20379;-87
2024/01/19 06:41:30;;;;;;;11.50;7.40;;;;;;;;;;6191873;23;20368;-86
2024/01/19 06:43:57;;;;;;;21.73;10.90;;;;;;;;;;6190836;23;20481;-86
2024/01/19 06:46:23;;;;;;;19.60;9.57;;;;;;;;;;6164086;23;20384;-86
2024/01/19 06:48:49;;;;;;;11.30;5.90;;;;;;;;;;6191252;23;20438;-86
2024/01/19 06:51:20;;;;;;;10.70;7.20;;;;;;;;;;6188313;23;20466;-86
2024/01/19 06:53:46;;;;;;;13.30;10.60;;;;;;;;;;6187929;23;20408;-85
2024/01/19 06:56:12;;;;;;;12.40;9.50;;;;;;;;;;6164076;23;20927;-86
2024/01/19 06:58:38;;;;;;;11.80;7.37;;;;;;;;;;6192219;23;20380;-86
2024/01/19 07:01:04;;;;;;;11.57;6.47;;;;;;;;;;6214215;23;20810;-86
2024/01/19 07:03:30;;;;;;;17.27;8.60;;;;;;;;;;6191126;23;20420;-87
2024/01/19 07:05:56;;;;;;;15.27;8.53;;;;;;;;;;6192206;23;20376;-87
2024/01/19 07:08:22;;;;;;;28.43;6.97;;;;;;;;;;6190389;23;20379;-86
2024/01/19 07:10:48;;;;;;;12.93;7.20;;;;;;;;;;6217626;23;20364;-86
2024/01/19 07:13:14;;;;;;;20.00;8.87;;;;;;;;;;6192046;23;20383;-88
2024/01/19 07:15:40;;;;;;;11.53;7.90;;;;;;;;;;6193066;23;20376;-85
2024/01/19 07:18:06;;;;;;;11.77;9.00;;;;;;;;;;6190946;23;20384;-86
2024/01/19 07:20:32;;;;;;;11.47;9.13;;;;;;;;;;6191558;23;20383;-86
2024/01/19 07:23:00;;;;;;;9.07;8.27;;;;;;;;;;6188962;23;20451;-87
2024/01/19 07:25:26;;;;;;;9.87;7.20;;;;;;;;;;6188736;23;20384;-86
2024/01/19 07:27:52;;;;;;;13.27;8.07;;;;;;;;;;6188892;23;20416;-87
2024/01/19 07:30:18;;;;;;;9.63;6.70;;;;;;;;;;6218519;23;20534;-87
2024/01/19 07:32:44;;;;;;;12.90;8.63;;;;;;;;;;6192343;23;20603;-86
2024/01/19 07:35:10;;;;;;;11.57;7.07;;;;;;;;;;6192384;23;20376;-87
2024/01/19 07:37:36;;;;;;;11.90;8.70;;;;;;;;;;6219491;23;20396;-87
2024/01/19 07:40:03;;;;;;;11.90;8.57;;;;;;;;;;6190112;23;20387;-89
2024/01/19 07:42:29;;;;;;;10.47;6.00;;;;;;;;;;6191104;23;20416;-87
2024/01/19 07:44:55;;;;;;;14.30;8.33;;;;;;;;;;6191049;23;20439;-87
2024/01/19 07:47:21;;;;;;;11.10;6.50;;;;;;;;;;6189790;23;20380;-87
2024/01/19 07:49:48;;;;;;;11.97;9.10;;;;;;;;;;6215707;23;20379;-88
2024/01/19 07:52:14;;;;;;;17.93;8.70;;;;;;;;;;6188675;23;20384;-88
2024/01/19 07:54:40;;;;;;;11.60;6.87;;;;;;;;;;6188807;23;20407;-87
2024/01/19 07:57:06;;;;;;;13.80;8.03;;;;;;;;;;6189066;23;20383;-87
2024/01/19 07:59:33;;;;;;;11.37;7.57;;;;;;;;;;6213826;23;20383;-87
2024/01/19 08:02:00;;;;;;;8.83;5.53;;;;;;;;;;6190581;23;20384;-87
2024/01/19 08:04:26;;;;;;;15.33;7.43;;;;;;;;;;6190150;23;20380;-87
2024/01/19 08:06:52;;;;;;;11.23;8.07;;;;;;;;;;6189311;23;20427;-88
2024/01/19 08:09:18;;;;;;;12.83;8.20;;;;;;;;;;6188501;23;20377;-87
2024/01/19 08:11:44;;;;;;;10.17;6.97;;;;;;;;;;6189579;23;20391;-87
2024/01/19 08:14:10;;;;;;;14.13;6.67;;;;;;;;;;6189160;23;20376;-87
2024/01/19 08:16:36;;;;;;;16.57;10.30;;;;;;;;;;6188983;23;20376;-87
2024/01/19 08:19:02;;;;;;;14.80;7.93;;;;;;;;;;6168193;23;20380;-87
2024/01/19 08:21:28;;;;;;;12.70;9.43;;;;;;;;;;6190895;23;20391;-88
2024/01/19 08:23:56;;;;;;;9.63;8.63;;;;;;;;;;6190375;23;20419;-88
2024/01/19 08:26:22;;;;;;;13.17;8.80;;;;;;;;;;6191234;23;20467;-87
2024/01/19 08:28:48;;;;;;;17.70;8.80;;;;;;;;;;6189774;23;20419;-87
2024/01/19 08:31:16;;;;;;;18.37;8.27;;;;;;;;;;6192341;23;20442;-88
2024/01/19 08:33:42;;;;;;;12.57;8.10;;;;;;;;;;6188997;23;20399;-88
2024/01/19 08:36:08;;;;;;;17.83;6.37;;;;;;;;;;6194375;23;20808;-88
2024/01/19 08:38:34;;;;;;;10.43;5.93;;;;;;;;;;6214717;23;20391;-87
2024/01/19 08:41:00;;;;;;;10.13;8.10;;;;;;;;;;6194000;23;20372;-87
2024/01/19 08:43:26;;;;;;;16.77;8.63;;;;;;;;;;6187979;23;20427;-88
2024/01/19 08:45:52;;;;;;;19.20;9.60;;;;;;;;;;6216783;23;20360;-89
2024/01/19 08:48:18;;;;;;;13.00;8.37;;;;;;;;;;6188493;23;20407;-87
2024/01/19 08:50:44;;;;;;;13.57;8.70;;;;;;;;;;6190810;23;20407;-88
2024/01/19 08:53:10;;;;;;;12.13;7.63;;;;;;;;;;6191043;23;20376;-87
2024/01/19 08:55:39;;;;;;;11.90;8.00;;;;;;;;;;6191109;23;20391;-88
2024/01/19 08:58:05;;;;;;;17.73;9.37;;;;;;;;;;6191536;23;20376;-87
2024/01/19 09:00:31;;;;;;;16.13;9.37;;;;;;;;;;6188564;23;20439;-88
2024/01/19 09:02:58;;;;;;;14.70;9.43;;;;;;;;;;6192193;23;20431;-87
2024/01/19 09:05:24;;;;;;;17.20;10.37;;;;;;;;;;6189774;23;20474;-86
2024/01/19 09:07:50;;;;;;;13.27;10.77;;;;;;;;;;6168764;23;20754;-88
2024/01/19 09:10:16;;;;;;;11.37;8.03;;;;;;;;;;6191053;23;20395;-88
2024/01/19 09:12:42;;;;;;;19.37;9.83;;;;;;;;;;6218321;23;20426;-88
2024/01/19 09:15:08;;;;;;;15.30;10.50;;;;;;;;;;6191048;23;20392;-88
2024/01/19 09:17:34;;;;;;;16.03;12.53;;;;;;;;;;6167385;23;20447;-86
2024/01/19 09:20:03;;;;;;;13.07;8.43;;;;;;;;;;6188367;23;20371;-88
2024/01/19 09:22:29;;;;;;;25.40;11.43;;;;;;;;;;6193374;23;20407;-88
2024/01/19 09:24:54;;;;;;;16.83;12.70;;;;;;;;;;6165168;23;20380;-88
2024/01/19 09:27:20;;;;;;;10.70;8.10;;;;;;;;;;6163592;23;20372;-89
2024/01/19 09:29:48;;;;;;;19.83;10.40;;;;;;;;;;6186098;23;20888;-85
2024/01/19 09:32:16;;;;;;;11.73;9.23;;;;;;;;;;6163976;23;20471;-89
2024/01/19 09:34:42;;;;;;;17.60;9.57;;;;;;;;;;6186264;23;20384;-88
2024/01/19 09:37:08;;;;;;;18.03;11.20;;;;;;;;;;6186838;23;20433;-87
2024/01/19 09:39:34;;;;;;;17.70;10.33;;;;;;;;;;6162802;23;20407;-88
2024/01/19 09:42:03;;;;;;;14.57;10.03;;;;;;;;;;6194244;23;20372;-88
2024/01/19 09:44:30;;;;;;;19.93;11.57;;;;;;;;;;6165496;23;20467;-88
2024/01/19 09:47:02;;;;;;;15.70;13.43;;;;;;;;;;6166489;23;21193;-88
2024/01/19 09:49:33;;;;;;;15.97;9.47;;;;;;;;;;6186923;23;20387;-89
2024/01/19 09:51:59;;;;;;;19.83;10.40;;;;;;;;;;6189140;23;20752;-89
2024/01/19 09:54:35;;;;;;;14.07;9.63;;;;;;;;;;6194912;23;20376;-89
2024/01/19 09:57:03;;;;;;;13.80;8.20;;;;;;;;;;6192159;23;20447;-89
2024/01/19 09:59:33;;;;;;;18.90;11.00;;;;;;;;;;6190779;23;20393;-89
2024/01/19 10:01:59;;;;;;;12.43;9.40;;;;;;;;;;6166269;23;20395;-89
2024/01/19 10:04:26;;;;;;;14.80;8.60;;;;;;;;;;6190943;23;20926;-88
2024/01/19 10:06:52;;;;;;;13.67;11.20;;;;;;;;;;6215523;23;20370;-88
2024/01/19 10:09:19;;;;;;;16.93;10.77;;;;;;;;;;6164231;23;20434;-88
2024/01/19 10:11:55;;;;;;;20.87;10.80;;;;;;;;;;6167596;23;20372;-89
2024/01/19 10:14:23;;;;;;;18.93;10.80;;;;;;;;;;6168323;23;20368;-89
2024/01/19 10:16:50;;;;;;;13.63;11.13;;;;;;;;;;6166729;23;20804;-89
2024/01/19 10:19:17;;;;;;;18.77;10.20;;;;;;;;;;6169303;23;20384;-90
2024/01/19 10:21:43;;;;;;;13.73;9.30;;;;;;;;;;6190147;23;20372;-89
2024/01/19 10:24:15;;;;;;;15.63;8.37;;;;;;;;;;6192918;23;20495;-89
2024/01/19 10:26:52;;;;;;;16.03;9.40;;;;;;;;;;6189771;23;20372;-89
2024/01/19 10:29:25;;;;;;;17.67;9.67;;;;;;;;;;6215043;23;20391;-90
2024/01/19 10:31:55;;;;;;;18.20;10.03;;;;;;;;;;6190220;23;20377;-90
2024/01/19 10:34:23;;;;;;;18.20;11.73;;;;;;;;;;6166036;23;20377;-89
2024/01/19 10:36:49;;;;;;;14.67;9.30;;;;;;;;;;6165225;23;20949;-89
2024/01/19 10:39:16;;;;;;;22.00;11.27;;;;;;;;;;6191992;23;20456;-88
2024/01/19 10:41:43;;;;;;;19.80;9.87;;;;;;;;;;6166098;23;20931;-89
2024/01/19 10:44:14;;;;;;;10.00;8.73;;;;;;;;;;6193881;23;20491;-89
2024/01/19 10:46:42;;;;;;;15.70;9.33;;;;;;;;;;6191707;23;20387;-90
2024/01/19 10:49:08;;;;;;;13.57;8.10;;;;;;;;;;6195097;23;20383;-88
2024/01/19 10:51:44;;;;;;;12.30;7.07;;;;;;;;;;6189843;23;20392;-88
2024/01/19 10:54:15;;;;;;;5.90;5.27;;;;;;;;;;6190786;23;20379;-89
2024/01/19 10:56:42;;;;;;;7.33;5.23;;;;;;;;;;6191549;23;20360;-89
2024/01/19 10:59:17;;;;;;;22.63;6.10;;;;;;;;;;6216619;23;20368;-87
2024/01/19 11:01:43;;;;;;;13.57;7.67;;;;;;;;;;6189976;23;20437;-89
2024/01/19 11:04:10;;;;;;;7.07;5.70;;;;;;;;;;6192354;23;20428;-89
2024/01/19 11:06:36;;;;;;;7.80;5.20;;;;;;;;;;6190266;23;20693;-88
2024/01/19 11:09:03;;;;;;;8.57;6.20;;;;;;;;;;6194695;23;20419;-89
2024/01/19 11:11:29;;;;;;;5.13;4.03;;;;;;;;;;6192297;23;20376;-89
2024/01/19 11:13:55;;;;;;;9.83;6.13;;;;;;;;;;6195534;23;20458;-90
2024/01/19 11:16:23;;;;;;;8.47;6.00;;;;;;;;;;6192649;23;20391;-90
2024/01/19 11:18:49;;;;;;;5.97;4.83;;;;;;;;;;6192785;23;20384;-90
2024/01/19 11:21:15;;;;;;;5.50;4.77;;;;;;;;;;6193808;23;20379;-90
2024/01/19 11:23:41;;;;;;;8.43;5.20;;;;;;;;;;6191712;23;20426;-90
2024/01/19 11:26:07;;;;;;;7.70;6.20;;;;;;;;;;6191127;23;20447;-90
2024/01/19 11:28:36;;;;;;;6.67;5.97;;;;;;;;;;6191019;23;20426;-89
2024/01/19 11:31:25;;;;;;;9.73;5.50;;;;;;;;;;6191507;23;20368;-90
2024/01/19 11:33:53;;;;;;;9.67;5.70;;;;;;;;;;6187778;23;20427;-87
2024/01/19 11:36:41;;;;;;;11.20;6.80;;;;;;;;;;6190187;23;20369;-89
2024/01/19 11:39:10;;;;;;;5.83;4.80;;;;;;;;;;6188077;23;20438;-90
2024/01/19 11:41:36;;;;;;;10.00;5.90;;;;;;;;;;6188657;23;20384;-89
2024/01/19 11:44:06;;;;;;;8.80;5.30;;;;;;;;;;6188540;23;20527;-89
2024/01/19 11:46:45;;;;;;;6.13;5.37;;;;;;;;;;6194845;23;20384;-89
2024/01/19 11:49:34;;;;;;;7.37;5.37;;;;;;;;;;6188783;23;20383;-90
2024/01/19 11:52:01;;;;;;;8.77;6.30;;;;;;;;;;6190525;23;20395;-90
2024/01/19 11:54:28;;;;;;;5.40;4.53;;;;;;;;;;6187350;23;20394;-89
2024/01/19 11:57:14;;;;;;;7.47;4.43;;;;;;;;;;6189509;23;20383;-91
2024/01/19 11:59:41;;;;;;;8.33;6.00;;;;;;;;;;6189335;23;20383;-91
2024/01/19 12:02:07;;;;;;;10.53;5.87;;;;;;;;;;6194474;23;20447;-91
2024/01/19 12:04:33;;;;;;;6.70;4.10;;;;;;;;;;6218422;23;20360;-91
2024/01/19 12:07:03;;;;;;;5.07;3.53;;;;;;;;;;6194045;23;20737;-91
2024/01/19 12:09:29;;;;;;;4.70;3.80;;;;;;;;;;6192077;23;20384;-91
2024/01/19 12:11:59;;;;;;;4.90;3.73;;;;;;;;;;6194074;23;20380;-91
2024/01/19 12:14:24;;;;;;;10.03;4.30;;;;;;;;;;6193841;23;20387;-91
2024/01/19 12:16:51;;;;;;;6.50;3.47;;;;;;;;;;6197119;23;20380;-90
2024/01/19 12:19:16;;;;;;;6.73;4.87;;;;;;;;;;6217024;23;20741;-93
2024/01/19 12:21:43;;;;;;;9.17;4.43;;;;;;;;;;6195482;23;20386;-92
2024/01/19 12:24:09;;;;;;;6.10;4.27;;;;;;;;;;6193881;23;20419;-91
2024/01/19 12:26:35;;;;;;;6.53;4.53;;;;;;;;;;6193162;23;20448;-91
2024/01/19 12:29:04;;;;;;;4.30;3.87;;;;;;;;;;6193178;23;20404;-92
2024/01/19 12:31:36;;;;;;;3.53;3.23;;;;;;;;;;6193653;23;20384;-92
2024/01/19 12:34:12;;;;;;;3.23;2.93;;;;;;;;;;6192864;23;20521;-90
2024/01/19 12:36:39;;;;;;;4.40;4.00;;;;;;;;;;6192313;23;20419;-89
2024/01/19 12:39:11;;;;;;;7.33;4.97;;;;;;;;;;6190474;23;20399;-91
2024/01/19 12:41:40;;;;;;;5.87;3.90;;;;;;;;;;6192547;23;20441;-90
2024/01/19 12:44:06;;;;;;;6.90;4.50;;;;;;;;;;6191807;23;20431;-90
2024/01/19 12:46:32;;;;;;;9.10;5.20;;;;;;;;;;6194098;23;20448;-91
2024/01/19 12:49:04;;;;;;;7.07;4.53;;;;;;;;;;6220035;23;20363;-90
2024/01/19 12:51:30;;;;;;;6.47;5.40;;;;;;;;;;6194213;23;20388;-90
2024/01/19 12:53:56;;;;;;;7.23;4.13;;;;;;;;;;6193804;23;20375;-92
2024/01/19 12:56:28;;;;;;;5.37;4.50;;;;;;;;;;6191139;23;20412;-92
2024/01/19 12:59:11;;;;;;;7.13;4.20;;;;;;;;;;6212437;23;20940;-91
2024/01/19 13:01:38;;;;;;;11.30;6.60;;;;;;;;;;6188457;23;21123;-90
2024/01/19 13:04:04;;;;;;;5.80;5.20;;;;;;;;;;6194251;23;20435;-91
2024/01/19 13:06:30;;;;;;;19.40;6.70;;;;;;;;;;6188474;23;20396;-89
2024/01/19 13:08:56;;;;;;;6.20;5.00;;;;;;;;;;6191343;23;20376;-92
2024/01/19 13:11:23;;;;;;;36.33;11.70;;;;;;;;;;6191947;23;20411;-90
2024/01/19 13:14:01;;;;;;;7.70;5.17;;;;;;;;;;6166241;23;20403;-90
2024/01/19 13:16:27;;;;;;;7.57;5.37;;;;;;;;;;6190904;23;20475;-91
2024/01/19 13:19:11;;;;;;;18.07;7.23;;;;;;;;;;6192546;23;20388;-92
2024/01/19 13:21:37;;;;;;;9.10;6.67;;;;;;;;;;6191463;23;20376;-90
2024/01/19 13:24:03;;;;;;;9.17;5.70;;;;;;;;;;6192540;23;20443;-91
2024/01/19 13:26:30;;;;;;;12.80;8.00;;;;;;;;;;6192819;23;20384;-91
2024/01/19 13:28:56;;;;;;;10.50;7.77;;;;;;;;;;6192117;23;20399;-92
2024/01/19 13:31:22;;;;;;;13.77;6.50;;;;;;;;;;6193934;23;20391;-90
2024/01/19 13:33:52;;;;;;;11.57;7.70;;;;;;;;;;6217883;23;20872;-90
2024/01/19 13:36:21;;;;;;;12.27;8.00;;;;;;;;;;6194727;23;20388;-91
2024/01/19 13:38:47;;;;;;;12.97;7.30;;;;;;;;;;6192930;23;20411;-90
2024/01/19 13:41:15;;;;;;;11.73;7.07;;;;;;;;;;6194190;23;20414;-89
2024/01/19 13:43:44;;;;;;;10.33;7.17;;;;;;;;;;6216377;23;20507;-90
2024/01/19 13:46:10;;;;;;;8.17;5.70;;;;;;;;;;6194007;23;20391;-89
2024/01/19 13:48:36;;;;;;;12.60;7.13;;;;;;;;;;6189443;23;20882;-89
2024/01/19 13:51:02;;;;;;;7.47;6.77;;;;;;;;;;6191188;23;20392;-90
2024/01/19 13:53:28;;;;;;;8.63;5.80;;;;;;;;;;6189668;23;20396;-90
2024/01/19 13:55:54;;;;;;;10.60;6.00;;;;;;;;;;6192561;23;20435;-89
2024/01/19 13:58:20;;;;;;;7.97;5.00;;;;;;;;;;6190404;23;20384;-89
2024/01/19 14:00:46;;;;;;;10.87;7.43;;;;;;;;;;6191527;23;20387;-90
2024/01/19 14:03:13;;;;;;;9.47;7.43;;;;;;;;;;6188651;23;20428;-87
2024/01/19 14:05:46;;;;;;;9.77;7.40;;;;;;;;;;6191817;23;20428;-88
2024/01/19 14:08:12;;;;;;;10.07;8.07;;;;;;;;;;6190875;23;20415;-89
2024/01/19 14:10:38;;;;;;;10.17;6.73;;;;;;;;;;6217096;23;20349;-89
2024/01/19 14:13:04;;;;;;;11.33;6.27;;;;;;;;;;6189169;23;20384;-89
2024/01/19 14:15:30;;;;;;;8.53;5.17;;;;;;;;;;6190512;23;20415;-90
2024/01/19 14:17:57;;;;;;;9.80;5.83;;;;;;;;;;6186386;23;20439;-89
2024/01/19 14:20:23;;;;;;;14.37;8.60;;;;;;;;;;6191168;23;20384;-89
2024/01/19 14:22:49;;;;;;;9.67;6.73;;;;;;;;;;6190480;23;20463;-89
2024/01/19 14:25:14;;;;;;;14.40;8.50;;;;;;;;;;6191126;23;20428;-89
2024/01/19 14:27:41;;;;;;;13.80;9.83;;;;;;;;;;6194268;23;20384;-88
2024/01/19 14:30:08;;;;;;;14.73;8.40;;;;;;;;;;6192771;23;20412;-89